Time;durP1;ratioP1;P1;durP2;ratioP2;P2;SDS_P1;SDS_P2;PMS_P1;PMS_P2;Temp;Humidity;BMP_temperature;BMP_pressure;BME280_temperature;BME280_humidity;BME280_pressure;Samples;Min_cycle;Max_cycle;Signal;HPM_P1;HPM_P2
2022/10/26 00:01:47;;;;;;;12.35;6.05;;;;;;;;;;5033716;28;20045;-81
2022/10/26 00:04:14;;;;;;;9.80;6.28;;;;;;;;;;5046117;28;20157;-81
2022/10/26 00:06:40;;;;;;;9.70;5.88;;;;;;;;;;5021856;28;20030;-81
2022/10/26 00:09:06;;;;;;;9.15;6.30;;;;;;;;;;5023121;28;20078;-81
2022/10/26 00:11:32;;;;;;;9.60;7.07;;;;;;;;;;5044195;28;20092;-80
2022/10/26 00:13:58;;;;;;;10.38;5.95;;;;;;;;;;5018121;28;20027;-80
2022/10/26 00:16:26;;;;;;;9.73;6.18;;;;;;;;;;5007879;28;20022;-80
2022/10/26 00:18:52;;;;;;;9.50;6.28;;;;;;;;;;5021523;28;20030;-80
2022/10/26 00:21:18;;;;;;;10.23;5.90;;;;;;;;;;5023533;28;20026;-80
2022/10/26 00:23:45;;;;;;;9.70;6.30;;;;;;;;;;5025002;28;20498;-81
2022/10/26 00:26:11;;;;;;;10.18;6.05;;;;;;;;;;5022927;28;20494;-80
2022/10/26 00:28:37;;;;;;;8.52;5.38;;;;;;;;;;5018568;28;20050;-80
2022/10/26 00:31:06;;;;;;;10.25;6.30;;;;;;;;;;5032674;28;20073;-81
2022/10/26 00:33:32;;;;;;;8.85;5.70;;;;;;;;;;5039616;28;20053;-81
2022/10/26 00:35:58;;;;;;;8.25;5.60;;;;;;;;;;5029667;28;20033;-81
2022/10/26 00:38:24;;;;;;;8.52;5.00;;;;;;;;;;5026555;28;20049;-81
2022/10/26 00:40:50;;;;;;;8.25;5.07;;;;;;;;;;5019147;28;20022;-81
2022/10/26 00:43:20;;;;;;;7.40;5.07;;;;;;;;;;4995692;28;20046;-81
2022/10/26 00:45:47;;;;;;;8.32;4.55;;;;;;;;;;5008690;28;20453;-82
2022/10/26 00:48:26;;;;;;;9.30;5.38;;;;;;;;;;5024652;28;20042;-81
2022/10/26 00:50:53;;;;;;;7.75;4.68;;;;;;;;;;5026140;28;20037;-82
2022/10/26 00:53:23;;;;;;;8.32;5.35;;;;;;;;;;5026026;28;20036;-81
2022/10/26 00:55:50;;;;;;;8.63;4.93;;;;;;;;;;5024304;28;20093;-81
2022/10/26 00:58:20;;;;;;;8.13;5.35;;;;;;;;;;5026024;28;20041;-81
2022/10/26 01:00:47;;;;;;;8.52;5.35;;;;;;;;;;5040330;28;20029;-81
2022/10/26 01:03:13;;;;;;;8.43;4.90;;;;;;;;;;5030285;28;20025;-81
2022/10/26 01:05:43;;;;;;;7.60;4.90;;;;;;;;;;5029033;28;20021;-82
2022/10/26 01:08:09;;;;;;;9.30;5.03;;;;;;;;;;5012968;28;20045;-81
2022/10/26 01:10:38;;;;;;;8.98;5.40;;;;;;;;;;5026805;28;20036;-82
2022/10/26 01:13:05;;;;;;;9.20;5.85;;;;;;;;;;5014799;28;20111;-81
2022/10/26 01:15:38;;;;;;;10.73;6.10;;;;;;;;;;5038599;28;20052;-80
2022/10/26 01:18:13;;;;;;;8.75;5.80;;;;;;;;;;5025801;28;20080;-80
2022/10/26 01:20:58;;;;;;;8.93;5.30;;;;;;;;;;5007968;28;20108;-81
2022/10/26 01:23:35;;;;;;;9.68;6.10;;;;;;;;;;5028302;28;20049;-81
2022/10/26 01:26:20;;;;;;;9.13;5.93;;;;;;;;;;5026383;28;20041;-81
2022/10/26 01:28:46;;;;;;;10.02;5.53;;;;;;;;;;5025370;28;20030;-82
2022/10/26 01:31:20;;;;;;;10.23;6.30;;;;;;;;;;5026250;28;20034;-81
2022/10/26 01:33:53;;;;;;;9.27;6.28;;;;;;;;;;5021316;28;20037;-81
2022/10/26 01:36:31;;;;;;;9.43;6.57;;;;;;;;;;5029919;28;20036;-81
2022/10/26 01:39:00;;;;;;;10.35;6.47;;;;;;;;;;5025941;28;20373;-80
2022/10/26 01:41:32;;;;;;;10.05;5.65;;;;;;;;;;5018717;28;20398;-81
2022/10/26 01:44:01;;;;;;;8.02;5.00;;;;;;;;;;5018998;28;20104;-81
2022/10/26 01:46:28;;;;;;;9.02;5.45;;;;;;;;;;5024296;28;20030;-81
2022/10/26 01:48:56;;;;;;;9.20;5.80;;;;;;;;;;5025105;28;20034;-81
2022/10/26 01:51:23;;;;;;;10.88;6.18;;;;;;;;;;5037829;28;20139;-81
2022/10/26 01:53:51;;;;;;;9.25;5.68;;;;;;;;;;5024242;28;20164;-81
2022/10/26 01:56:20;;;;;;;12.10;6.00;;;;;;;;;;5024836;28;20045;-80
2022/10/26 01:58:46;;;;;;;10.40;5.40;;;;;;;;;;5045175;28;20159;-81
2022/10/26 02:01:14;;;;;;;10.23;6.07;;;;;;;;;;5026801;28;20037;-81
2022/10/26 02:03:45;;;;;;;11.13;7.10;;;;;;;;;;5036155;28;20036;-81
2022/10/26 02:06:16;;;;;;;11.88;6.90;;;;;;;;;;5028231;28;20025;-81
2022/10/26 02:08:48;;;;;;;13.20;7.10;;;;;;;;;;5024259;28;20022;-81
2022/10/26 02:11:14;;;;;;;14.20;8.65;;;;;;;;;;5024737;28;20026;-81
2022/10/26 02:13:50;;;;;;;10.65;6.32;;;;;;;;;;5009081;28;20074;-81
2022/10/26 02:16:40;;;;;;;17.42;8.13;;;;;;;;;;5009107;28;20030;-81
2022/10/26 02:19:18;;;;;;;17.38;9.40;;;;;;;;;;5023575;28;20051;-81
2022/10/26 02:21:47;;;;;;;25.85;13.25;;;;;;;;;;5006699;28;20030;-80
2022/10/26 02:24:15;;;;;;;23.10;11.95;;;;;;;;;;5023722;28;20044;-81
2022/10/26 02:26:41;;;;;;;19.25;10.88;;;;;;;;;;5025770;28;20037;-81
2022/10/26 02:29:09;;;;;;;20.35;10.68;;;;;;;;;;5024929;28;20034;-81
2022/10/26 02:31:36;;;;;;;18.75;10.50;;;;;;;;;;5025692;28;20478;-81
2022/10/26 02:34:04;;;;;;;19.27;9.80;;;;;;;;;;5024763;28;20098;-81
2022/10/26 02:36:32;;;;;;;17.88;10.82;;;;;;;;;;5024847;28;20034;-82
2022/10/26 02:38:58;;;;;;;19.60;10.23;;;;;;;;;;5017505;28;20034;-81
2022/10/26 02:41:26;;;;;;;14.93;8.90;;;;;;;;;;5020031;28;20041;-82
2022/10/26 02:44:12;;;;;;;15.60;9.18;;;;;;;;;;5041380;28;20022;-82
2022/10/26 02:46:39;;;;;;;12.68;8.07;;;;;;;;;;5035985;28;20026;-81
2022/10/26 02:49:05;;;;;;;14.32;7.35;;;;;;;;;;5024324;28;20022;-81
2022/10/26 02:51:38;;;;;;;13.93;7.75;;;;;;;;;;5024925;28;20034;-81
2022/10/26 02:54:14;;;;;;;10.75;6.20;;;;;;;;;;5014688;28;20053;-81
2022/10/26 02:56:59;;;;;;;10.02;5.53;;;;;;;;;;5028558;28;20041;-81
2022/10/26 02:59:27;;;;;;;11.55;6.95;;;;;;;;;;5029231;28;20025;-81
2022/10/26 03:01:54;;;;;;;12.30;6.32;;;;;;;;;;5042442;28;20096;-81
2022/10/26 03:04:20;;;;;;;9.55;5.88;;;;;;;;;;5013796;28;20121;-81
2022/10/26 03:06:53;;;;;;;8.73;6.28;;;;;;;;;;5036732;28;20097;-81
2022/10/26 03:09:22;;;;;;;9.02;6.03;;;;;;;;;;5024336;28;20034;-80
2022/10/26 03:11:48;;;;;;;10.50;6.90;;;;;;;;;;5024471;28;20632;-81
2022/10/26 03:14:14;;;;;;;9.73;5.57;;;;;;;;;;5023780;28;20041;-81
2022/10/26 03:16:40;;;;;;;8.52;5.70;;;;;;;;;;5023185;28;20038;-81
2022/10/26 03:19:06;;;;;;;9.85;5.30;;;;;;;;;;5030899;28;20032;-80
2022/10/26 03:21:32;;;;;;;8.93;5.65;;;;;;;;;;5010912;28;20097;-80
2022/10/26 03:23:58;;;;;;;8.90;5.53;;;;;;;;;;5008684;28;20050;-80
2022/10/26 03:26:24;;;;;;;8.18;5.57;;;;;;;;;;5008995;28;20040;-81
2022/10/26 03:28:50;;;;;;;8.38;5.38;;;;;;;;;;5014141;28;20037;-80
2022/10/26 03:31:16;;;;;;;8.70;6.00;;;;;;;;;;5028724;28;20026;-80
2022/10/26 03:33:43;;;;;;;8.75;5.38;;;;;;;;;;5030178;28;20049;-80
2022/10/26 03:36:09;;;;;;;9.00;6.07;;;;;;;;;;5027619;28;20065;-80
2022/10/26 03:38:35;;;;;;;10.18;6.22;;;;;;;;;;5027665;28;20025;-80
2022/10/26 03:41:01;;;;;;;10.60;6.05;;;;;;;;;;5021446;28;20026;-80
2022/10/26 03:43:28;;;;;;;9.65;6.10;;;;;;;;;;5011469;28;20029;-81
2022/10/26 03:45:59;;;;;;;8.63;5.78;;;;;;;;;;5038340;28;20025;-80
2022/10/26 03:48:25;;;;;;;9.95;6.32;;;;;;;;;;5034495;28;20084;-81
2022/10/26 03:50:51;;;;;;;8.88;5.57;;;;;;;;;;5038976;28;20047;-82
2022/10/26 03:53:17;;;;;;;10.73;6.07;;;;;;;;;;5024133;28;20052;-82
2022/10/26 03:55:44;;;;;;;8.95;5.55;;;;;;;;;;5027981;28;20068;-82
2022/10/26 03:58:10;;;;;;;9.73;6.63;;;;;;;;;;5037200;28;20025;-82
2022/10/26 04:00:36;;;;;;;10.73;6.13;;;;;;;;;;5039569;28;20029;-81
2022/10/26 04:03:02;;;;;;;10.70;6.30;;;;;;;;;;5028185;28;20077;-81
2022/10/26 04:05:29;;;;;;;9.80;6.10;;;;;;;;;;5010198;28;20037;-82
2022/10/26 04:08:01;;;;;;;9.88;6.75;;;;;;;;;;5027861;28;20026;-82
2022/10/26 04:10:27;;;;;;;11.55;6.90;;;;;;;;;;5013288;28;20026;-81
2022/10/26 04:12:54;;;;;;;9.13;6.00;;;;;;;;;;5028842;28;20029;-81
2022/10/26 04:15:21;;;;;;;10.40;6.75;;;;;;;;;;5025615;28;20056;-82
2022/10/26 04:17:47;;;;;;;11.05;6.50;;;;;;;;;;5030835;28;20022;-81
2022/10/26 04:20:13;;;;;;;10.43;7.00;;;;;;;;;;5022539;28;20021;-81
2022/10/26 04:22:39;;;;;;;10.55;6.97;;;;;;;;;;5025045;28;20046;-81
2022/10/26 04:25:06;;;;;;;10.90;6.88;;;;;;;;;;5027663;28;20042;-81
2022/10/26 04:27:32;;;;;;;12.18;7.13;;;;;;;;;;5015918;28;20070;-81
2022/10/26 04:30:04;;;;;;;11.93;7.88;;;;;;;;;;5020905;28;20501;-83
2022/10/26 04:32:31;;;;;;;14.00;7.75;;;;;;;;;;5020443;28;20030;-82
2022/10/26 04:34:57;;;;;;;14.23;8.25;;;;;;;;;;5029019;28;20033;-81
2022/10/26 04:37:23;;;;;;;13.68;8.20;;;;;;;;;;5015156;28;20065;-81
2022/10/26 04:39:49;;;;;;;11.95;7.72;;;;;;;;;;5026110;28;20022;-82
2022/10/26 04:42:15;;;;;;;12.35;7.70;;;;;;;;;;5023080;28;20030;-82
2022/10/26 04:44:44;;;;;;;12.95;7.75;;;;;;;;;;5017504;28;20017;-81
2022/10/26 04:47:13;;;;;;;12.75;8.15;;;;;;;;;;5035757;28;20033;-80
2022/10/26 04:50:18;;;;;;;10.98;8.05;;;;;;;;;;5002904;28;20086;-83
2022/10/26 04:56:18;;;;;;;12.13;6.97;;;;;;;;;;4932933;29;20044;-83
2022/10/26 04:59:03;;;;;;;10.85;7.20;;;;;;;;;;4925406;29;20144;-82
2022/10/26 05:01:56;;;;;;;13.85;8.20;;;;;;;;;;4913028;29;20032;-82
2022/10/26 05:04:36;;;;;;;11.48;7.72;;;;;;;;;;4911717;29;20033;-82
2022/10/26 05:07:23;;;;;;;12.82;7.60;;;;;;;;;;4914078;29;20029;-83
2022/10/26 05:10:02;;;;;;;12.90;7.30;;;;;;;;;;4913949;29;20104;-82
2022/10/26 05:12:40;;;;;;;13.55;7.88;;;;;;;;;;4922136;29;20062;-82
2022/10/26 05:15:16;;;;;;;10.70;7.60;;;;;;;;;;4915248;29;20036;-82
2022/10/26 05:17:54;;;;;;;10.40;7.53;;;;;;;;;;4930558;29;20043;-81
2022/10/26 05:20:20;;;;;;;11.10;6.57;;;;;;;;;;4935059;29;20059;-82
2022/10/26 05:22:52;;;;;;;10.98;6.78;;;;;;;;;;4928708;29;20036;-81
2022/10/26 05:25:19;;;;;;;11.63;7.75;;;;;;;;;;4947526;29;20099;-81
2022/10/26 05:27:45;;;;;;;12.60;8.60;;;;;;;;;;4918095;29;20044;-81
2022/10/26 05:33:17;;;;;;;12.65;7.60;;;;;;;;;;4972590;28;20070;-81
2022/10/26 05:35:43;;;;;;;12.70;8.00;;;;;;;;;;5020641;28;20386;-81
2022/10/26 05:38:10;;;;;;;14.45;9.20;;;;;;;;;;5021762;28;20022;-82
2022/10/26 05:40:36;;;;;;;14.20;8.98;;;;;;;;;;5014465;28;20088;-81
2022/10/26 05:43:03;;;;;;;13.80;8.05;;;;;;;;;;5015613;28;20031;-81
2022/10/26 05:45:29;;;;;;;14.65;8.88;;;;;;;;;;5022060;28;20037;-81
2022/10/26 05:47:55;;;;;;;15.65;9.25;;;;;;;;;;5015870;28;20546;-82
2022/10/26 05:50:23;;;;;;;16.88;9.85;;;;;;;;;;5008841;28;20041;-81
2022/10/26 05:52:49;;;;;;;19.55;11.90;;;;;;;;;;5013690;28;20422;-81
2022/10/26 05:55:17;;;;;;;18.50;11.77;;;;;;;;;;5023770;28;20029;-81
2022/10/26 05:57:43;;;;;;;17.10;11.43;;;;;;;;;;5007967;28;20505;-81
2022/10/26 06:00:20;;;;;;;15.15;10.27;;;;;;;;;;5018058;28;20017;-81
2022/10/26 06:02:49;;;;;;;17.65;10.43;;;;;;;;;;5008754;28;20026;-80
2022/10/26 06:05:21;;;;;;;17.30;9.90;;;;;;;;;;5022313;28;20022;-80
2022/10/26 06:07:47;;;;;;;18.40;10.90;;;;;;;;;;5020868;28;20088;-82
2022/10/26 06:10:13;;;;;;;16.08;10.82;;;;;;;;;;5013891;28;20019;-81
2022/10/26 06:12:40;;;;;;;17.23;10.95;;;;;;;;;;5009288;28;20029;-82
2022/10/26 06:15:06;;;;;;;16.50;10.60;;;;;;;;;;5026667;28;20018;-82
2022/10/26 06:17:35;;;;;;;15.95;9.82;;;;;;;;;;5026086;28;20053;-81
2022/10/26 06:20:09;;;;;;;17.58;10.00;;;;;;;;;;5012279;28;20040;-82
2022/10/26 06:22:38;;;;;;;16.38;9.75;;;;;;;;;;5030198;28;20061;-81
2022/10/26 06:25:04;;;;;;;15.05;9.57;;;;;;;;;;5010929;28;20069;-81
2022/10/26 06:27:42;;;;;;;14.13;9.35;;;;;;;;;;5020929;28;20089;-81
2022/10/26 06:30:10;;;;;;;12.57;7.75;;;;;;;;;;4986291;28;20027;-82
2022/10/26 06:32:43;;;;;;;14.57;9.23;;;;;;;;;;5000350;28;20041;-81
2022/10/26 06:35:09;;;;;;;;;;;;;;;;;;5017973;28;20318;-81
2022/10/26 06:37:36;;;;;;;18.60;10.27;;;;;;;;;;5015845;28;19925;-81
2022/10/26 06:40:02;;;;;;;16.83;9.82;;;;;;;;;;5000693;28;20027;-81
2022/10/26 06:42:30;;;;;;;14.77;9.32;;;;;;;;;;5001662;28;20031;-83
2022/10/26 06:44:57;;;;;;;11.60;8.45;;;;;;;;;;4997721;28;20023;-81
2022/10/26 06:47:23;;;;;;;14.98;9.05;;;;;;;;;;5013831;28;20030;-81
2022/10/26 06:49:49;;;;;;;14.52;10.57;;;;;;;;;;5016465;28;20102;-81
2022/10/26 06:52:21;;;;;;;13.85;8.93;;;;;;;;;;4994357;28;20050;-82
2022/10/26 06:54:50;;;;;;;15.15;9.43;;;;;;;;;;5006241;28;20124;-81
2022/10/26 06:57:17;;;;;;;13.05;9.07;;;;;;;;;;5016854;28;20110;-82
2022/10/26 06:59:48;;;;;;;21.13;12.38;;;;;;;;;;5006535;28;20512;-81
2022/10/26 07:02:17;;;;;;;28.40;16.50;;;;;;;;;;5023507;28;20038;-81
2022/10/26 07:04:44;;;;;;;24.23;14.35;;;;;;;;;;5010511;28;20030;-81
2022/10/26 07:07:12;;;;;;;21.73;14.02;;;;;;;;;;4997011;28;20046;-82
2022/10/26 07:09:38;;;;;;;17.60;12.30;;;;;;;;;;5008923;28;20078;-82
2022/10/26 07:12:04;;;;;;;20.58;13.52;;;;;;;;;;5008638;28;20038;-82
2022/10/26 07:14:30;;;;;;;22.30;13.52;;;;;;;;;;5025216;28;20022;-81
2022/10/26 07:16:56;;;;;;;18.95;12.88;;;;;;;;;;5003917;28;20030;-81
2022/10/26 07:19:23;;;;;;;20.13;13.38;;;;;;;;;;5010012;28;20019;-81
2022/10/26 07:21:49;;;;;;;21.88;13.90;;;;;;;;;;5002053;28;20026;-81
2022/10/26 07:24:16;;;;;;;20.58;13.75;;;;;;;;;;5001203;28;20146;-81
2022/10/26 07:26:42;;;;;;;20.65;15.02;;;;;;;;;;5018895;28;20038;-81
2022/10/26 07:29:08;;;;;;;18.73;12.00;;;;;;;;;;5028141;28;20030;-82
2022/10/26 07:31:34;;;;;;;19.00;12.32;;;;;;;;;;5026772;28;20545;-81
2022/10/26 07:34:00;;;;;;;16.52;11.50;;;;;;;;;;5026251;28;20057;-81
2022/10/26 07:36:28;;;;;;;19.55;13.60;;;;;;;;;;5027468;28;20030;-81
2022/10/26 07:38:54;;;;;;;21.50;14.95;;;;;;;;;;5026115;28;20036;-82
2022/10/26 07:41:20;;;;;;;21.10;14.35;;;;;;;;;;5016675;28;20037;-83
2022/10/26 07:43:49;;;;;;;20.25;14.10;;;;;;;;;;5011532;28;20042;-82
2022/10/26 07:46:16;;;;;;;25.92;15.18;;;;;;;;;;5006859;28;20030;-83
2022/10/26 07:48:42;;;;;;;18.75;13.45;;;;;;;;;;5019932;28;20061;-82
2022/10/26 07:51:11;;;;;;;19.30;12.38;;;;;;;;;;5025221;28;20516;-82
2022/10/26 07:53:37;;;;;;;22.15;14.73;;;;;;;;;;5026551;28;20568;-82
2022/10/26 07:56:03;;;;;;;21.00;13.88;;;;;;;;;;5008953;28;20118;-82
2022/10/26 07:58:30;;;;;;;22.90;13.73;;;;;;;;;;5022550;28;20092;-83
2022/10/26 08:00:56;;;;;;;20.88;13.32;;;;;;;;;;5022659;28;20017;-83
2022/10/26 08:03:22;;;;;;;25.55;16.08;;;;;;;;;;5027144;28;20029;-82
2022/10/26 08:05:58;;;;;;;25.55;15.23;;;;;;;;;;5027191;28;20069;-82
2022/10/26 08:08:24;;;;;;;24.95;13.93;;;;;;;;;;5021283;28;20027;-82
2022/10/26 08:10:52;;;;;;;23.42;13.98;;;;;;;;;;5022115;28;20041;-82
2022/10/26 08:13:18;;;;;;;23.80;14.85;;;;;;;;;;5018331;28;20029;-82
2022/10/26 08:15:44;;;;;;;24.77;14.70;;;;;;;;;;5026441;28;20049;-82
2022/10/26 08:18:11;;;;;;;23.20;13.95;;;;;;;;;;5025557;28;20030;-82
2022/10/26 08:20:37;;;;;;;23.35;14.52;;;;;;;;;;5026512;28;20037;-82
2022/10/26 08:23:05;;;;;;;23.00;12.75;;;;;;;;;;5025686;28;20034;-82
2022/10/26 08:25:31;;;;;;;22.40;14.40;;;;;;;;;;5024524;28;20030;-82
2022/10/26 08:28:02;;;;;;;23.30;12.95;;;;;;;;;;5015897;28;20034;-82
2022/10/26 08:30:28;;;;;;;23.38;12.55;;;;;;;;;;5019233;28;20121;-82
2022/10/26 08:32:58;;;;;;;24.75;12.40;;;;;;;;;;5024529;28;20053;-82
2022/10/26 08:35:24;;;;;;;23.88;13.68;;;;;;;;;;5007679;28;20022;-82
2022/10/26 08:37:51;;;;;;;26.70;13.48;;;;;;;;;;5005972;28;20031;-82
2022/10/26 08:40:19;;;;;;;24.60;13.48;;;;;;;;;;5016924;28;20026;-82
2022/10/26 08:42:47;;;;;;;32.08;17.05;;;;;;;;;;5024033;28;20108;-82
2022/10/26 08:45:22;;;;;;;30.25;16.45;;;;;;;;;;5022116;28;20022;-81
2022/10/26 08:47:51;;;;;;;29.58;16.85;;;;;;;;;;5015362;28;20033;-83
2022/10/26 08:50:34;;;;;;;26.33;15.52;;;;;;;;;;5007298;28;20054;-82
2022/10/26 08:53:19;;;;;;;31.08;16.10;;;;;;;;;;5030983;28;20045;-82
2022/10/26 08:55:52;;;;;;;32.47;15.65;;;;;;;;;;4994534;28;20088;-82
2022/10/26 08:58:22;;;;;;;34.13;14.77;;;;;;;;;;5027102;28;20097;-82
2022/10/26 09:00:49;;;;;;;36.53;17.63;;;;;;;;;;5023876;28;20072;-82
2022/10/26 09:03:16;;;;;;;39.88;17.70;;;;;;;;;;5013762;28;20026;-82
2022/10/26 09:05:45;;;;;;;31.60;15.88;;;;;;;;;;5008381;28;20030;-83
2022/10/26 09:08:14;;;;;;;39.88;17.67;;;;;;;;;;5014579;28;20037;-82
2022/10/26 09:10:43;;;;;;;37.80;17.58;;;;;;;;;;5015455;28;20026;-82
2022/10/26 09:13:09;;;;;;;37.88;18.58;;;;;;;;;;5014438;28;20042;-82
2022/10/26 09:15:45;;;;;;;35.83;18.17;;;;;;;;;;5019850;28;20033;-81
2022/10/26 09:18:31;;;;;;;36.45;17.08;;;;;;;;;;5017249;28;20814;-82
2022/10/26 09:21:31;;;;;;;39.10;18.60;;;;;;;;;;5007379;28;20041;-82
2022/10/26 09:24:06;;;;;;;37.63;17.80;;;;;;;;;;4988311;28;20034;-82
2022/10/26 09:26:42;;;;;;;35.15;17.63;;;;;;;;;;5021630;28;20034;-82
2022/10/26 09:29:12;;;;;;;34.92;18.33;;;;;;;;;;5008776;28;20788;-83
2022/10/26 09:31:45;;;;;;;39.47;19.10;;;;;;;;;;5019475;28;20034;-83
2022/10/26 09:34:29;;;;;;;;;;;;;;;;;;5009999;28;20397;-83
2022/10/26 09:36:56;;;;;;;31.10;16.65;;;;;;;;;;5014136;28;19917;-83
2022/10/26 09:39:26;;;;;;;35.63;16.38;;;;;;;;;;5025015;28;20034;-82
2022/10/26 09:41:59;;;;;;;33.50;15.98;;;;;;;;;;5027191;28;20033;-82
2022/10/26 09:44:31;;;;;;;30.90;17.38;;;;;;;;;;5018351;28;20026;-81
2022/10/26 09:47:14;;;;;;;33.17;18.27;;;;;;;;;;5028200;28;20037;-82
2022/10/26 09:50:07;;;;;;;31.40;16.10;;;;;;;;;;5025366;28;20033;-83
2022/10/26 09:52:33;;;;;;;29.20;15.13;;;;;;;;;;4978006;28;20102;-83
2022/10/26 09:55:05;;;;;;;34.58;17.98;;;;;;;;;;4979804;28;20060;-83
2022/10/26 09:57:31;;;;;;;34.78;16.98;;;;;;;;;;4977180;28;20569;-83
2022/10/26 09:59:57;;;;;;;33.53;17.42;;;;;;;;;;4983574;28;20058;-83
2022/10/26 10:02:36;;;;;;;35.40;16.30;;;;;;;;;;4981176;28;20174;-83
2022/10/26 10:05:03;;;;;;;33.03;16.02;;;;;;;;;;4983384;28;20098;-84
2022/10/26 10:07:29;;;;;;;34.17;16.67;;;;;;;;;;4984125;28;20047;-83
2022/10/26 10:10:09;;;;;;;31.90;14.52;;;;;;;;;;4965551;28;20138;-82
2022/10/26 10:12:35;;;;;;;29.38;14.40;;;;;;;;;;4972058;28;20027;-82
2022/10/26 10:15:01;;;;;;;33.63;15.77;;;;;;;;;;4988993;28;20034;-82
2022/10/26 10:17:30;;;;;;;37.38;17.10;;;;;;;;;;4985758;28;20541;-83
2022/10/26 10:20:06;;;;;;;41.70;18.38;;;;;;;;;;4984999;28;20035;-83
2022/10/26 10:22:32;;;;;;;34.90;16.35;;;;;;;;;;4973154;28;20030;-83
2022/10/26 10:24:59;;;;;;;35.70;17.23;;;;;;;;;;4968146;28;20053;-82
2022/10/26 10:27:26;;;;;;;31.70;16.63;;;;;;;;;;4979057;28;20058;-83
2022/10/26 10:29:55;;;;;;;32.70;16.45;;;;;;;;;;5006118;28;20034;-81
2022/10/26 10:32:31;;;;;;;34.70;16.48;;;;;;;;;;5028198;28;20030;-83
2022/10/26 10:35:02;;;;;;;27.10;14.80;;;;;;;;;;5025730;28;20257;-83
2022/10/26 10:37:37;;;;;;;30.33;15.15;;;;;;;;;;5009588;28;20037;-82
2022/10/26 10:40:20;;;;;;;31.17;15.73;;;;;;;;;;5012243;28;20030;-83
2022/10/26 10:42:47;;;;;;;31.83;16.27;;;;;;;;;;5026811;28;20109;-82
2022/10/26 10:45:23;;;;;;;31.58;15.80;;;;;;;;;;5011112;28;20053;-82
2022/10/26 10:48:13;;;;;;;32.70;15.27;;;;;;;;;;5024112;28;20034;-84
2022/10/26 10:50:51;;;;;;;33.30;16.02;;;;;;;;;;5009312;28;20026;-81
2022/10/26 10:53:20;;;;;;;30.52;15.95;;;;;;;;;;5023305;28;20057;-83
2022/10/26 10:55:52;;;;;;;29.13;15.48;;;;;;;;;;5021493;28;20026;-83
2022/10/26 10:58:33;;;;;;;32.67;15.38;;;;;;;;;;5009396;28;20034;-83
2022/10/26 11:00:59;;;;;;;28.60;15.30;;;;;;;;;;5016811;28;20117;-83
2022/10/26 11:03:40;;;;;;;28.50;14.68;;;;;;;;;;5022332;28;20037;-82
2022/10/26 11:06:27;;;;;;;32.78;16.60;;;;;;;;;;5022457;28;20165;-82
2022/10/26 11:08:53;;;;;;;28.98;15.45;;;;;;;;;;5012194;28;20026;-84
2022/10/26 11:11:25;;;;;;;31.10;15.50;;;;;;;;;;5010880;28;20042;-83
2022/10/26 11:13:54;;;;;;;28.77;14.77;;;;;;;;;;5015822;28;20038;-83
2022/10/26 11:16:22;;;;;;;31.58;15.85;;;;;;;;;;5027078;28;20053;-83
2022/10/26 11:18:52;;;;;;;31.15;16.25;;;;;;;;;;5026931;28;20053;-83
2022/10/26 11:21:24;;;;;;;30.20;15.43;;;;;;;;;;5023643;28;20072;-82
2022/10/26 11:24:10;;;;;;;31.15;17.80;;;;;;;;;;5028879;28;20030;-83
2022/10/26 11:26:45;;;;;;;31.15;16.02;;;;;;;;;;5041989;28;20038;-82
2022/10/26 11:29:29;;;;;;;31.08;16.02;;;;;;;;;;5030871;28;20028;-82
2022/10/26 11:32:02;;;;;;;36.38;18.80;;;;;;;;;;5021176;28;20033;-83
2022/10/26 11:34:40;;;;;;;31.98;17.67;;;;;;;;;;5006914;28;20030;-82
2022/10/26 11:37:19;;;;;;;28.42;15.93;;;;;;;;;;5017133;28;20580;-83
2022/10/26 11:39:46;;;;;;;33.88;16.70;;;;;;;;;;5025509;28;20041;-83
2022/10/26 11:42:28;;;;;;;34.15;17.05;;;;;;;;;;5043256;28;20042;-82
2022/10/26 11:45:00;;;;;;;43.13;19.00;;;;;;;;;;5018111;28;20100;-82
2022/10/26 11:47:40;;;;;;;39.97;19.42;;;;;;;;;;5026352;28;20034;-83
2022/10/26 11:50:13;;;;;;;33.13;18.20;;;;;;;;;;5026631;28;20086;-83
2022/10/26 11:52:59;;;;;;;34.63;16.95;;;;;;;;;;5019672;28;20042;-82
2022/10/26 11:55:25;;;;;;;31.73;16.88;;;;;;;;;;5015401;28;20113;-83
2022/10/26 11:57:53;;;;;;;32.80;16.92;;;;;;;;;;5021789;28;20061;-82
2022/10/26 12:00:19;;;;;;;28.80;15.73;;;;;;;;;;5029640;28;20032;-83
2022/10/26 12:02:50;;;;;;;27.30;14.93;;;;;;;;;;5046602;28;20026;-82
2022/10/26 12:05:22;;;;;;;28.98;15.95;;;;;;;;;;5046517;28;20026;-82
2022/10/26 12:08:00;;;;;;;28.02;15.57;;;;;;;;;;5030941;28;20029;-82
2022/10/26 12:10:44;;;;;;;27.77;14.68;;;;;;;;;;5024160;28;20025;-82
2022/10/26 12:13:14;;;;;;;26.17;15.55;;;;;;;;;;5025430;28;20064;-82
2022/10/26 12:15:48;;;;;;;28.58;14.43;;;;;;;;;;5008044;28;20018;-82
2022/10/26 12:18:24;;;;;;;27.23;15.57;;;;;;;;;;5008266;28;20026;-81
2022/10/26 12:20:50;;;;;;;29.80;14.90;;;;;;;;;;5021085;28;20073;-82
2022/10/26 12:23:20;;;;;;;29.40;15.00;;;;;;;;;;5011185;28;20162;-82
2022/10/26 12:25:46;;;;;;;26.67;15.18;;;;;;;;;;5025714;28;20030;-82
2022/10/26 12:28:51;;;;;;;28.52;15.38;;;;;;;;;;4999596;28;20058;-83
2022/10/26 12:31:32;;;;;;;25.27;14.93;;;;;;;;;;4991743;28;20026;-82
2022/10/26 12:33:59;;;;;;;27.13;14.30;;;;;;;;;;4985540;28;20022;-82
2022/10/26 12:36:44;;;;;;;26.25;14.63;;;;;;;;;;5017082;28;20042;-82
2022/10/26 12:39:26;;;;;;;27.52;15.07;;;;;;;;;;5044871;28;20025;-82
2022/10/26 12:42:07;;;;;;;31.58;17.13;;;;;;;;;;5025286;28;20037;-82
2022/10/26 12:44:41;;;;;;;28.85;15.32;;;;;;;;;;5006192;28;20061;-82
2022/10/26 12:47:10;;;;;;;26.75;14.95;;;;;;;;;;5024253;28;20061;-82
2022/10/26 12:49:55;;;;;;;31.50;16.20;;;;;;;;;;5024186;28;20041;-82
2022/10/26 12:52:25;;;;;;;29.80;16.42;;;;;;;;;;5024860;28;20026;-82
2022/10/26 12:55:10;;;;;;;26.40;15.13;;;;;;;;;;5024595;28;20029;-82
2022/10/26 12:57:49;;;;;;;26.92;15.43;;;;;;;;;;5025597;28;20093;-81
2022/10/26 13:00:22;;;;;;;30.08;16.30;;;;;;;;;;5016877;28;20317;-83
2022/10/26 13:03:07;;;;;;;26.35;15.50;;;;;;;;;;5021435;28;20052;-83
2022/10/26 13:05:39;;;;;;;32.45;17.15;;;;;;;;;;5021968;28;20069;-82
2022/10/26 13:08:07;;;;;;;30.35;17.88;;;;;;;;;;5010040;28;20030;-82
2022/10/26 13:10:34;;;;;;;29.25;15.35;;;;;;;;;;5026436;28;20038;-81
2022/10/26 13:13:04;;;;;;;29.50;16.02;;;;;;;;;;5023420;28;20022;-82
2022/10/26 13:15:30;;;;;;;28.85;15.75;;;;;;;;;;5007935;28;20033;-82
2022/10/26 13:17:56;;;;;;;29.48;16.20;;;;;;;;;;5023694;28;20022;-82
2022/10/26 13:20:22;;;;;;;32.15;17.48;;;;;;;;;;5025039;28;20406;-82
2022/10/26 13:22:48;;;;;;;31.70;16.25;;;;;;;;;;5026072;28;20026;-81
2022/10/26 13:25:28;;;;;;;29.25;17.38;;;;;;;;;;5032478;28;20037;-82
2022/10/26 13:27:57;;;;;;;27.52;16.30;;;;;;;;;;5028796;28;20089;-82
2022/10/26 13:30:32;;;;;;;32.22;16.90;;;;;;;;;;5031207;28;20084;-82
2022/10/26 13:32:59;;;;;;;31.25;16.02;;;;;;;;;;5014355;28;20026;-82
2022/10/26 13:35:26;;;;;;;30.75;16.42;;;;;;;;;;5005971;28;20062;-82
2022/10/26 13:37:53;;;;;;;28.95;16.70;;;;;;;;;;5010486;28;20050;-82
2022/10/26 13:40:24;;;;;;;33.45;16.83;;;;;;;;;;5026193;28;20470;-82
2022/10/26 13:42:53;;;;;;;29.13;16.02;;;;;;;;;;5026422;28;20053;-81
2022/10/26 13:45:21;;;;;;;33.20;17.35;;;;;;;;;;5025408;28;20018;-81
2022/10/26 13:47:47;;;;;;;29.90;17.00;;;;;;;;;;5024019;28;20331;-81
2022/10/26 13:50:16;;;;;;;32.20;15.95;;;;;;;;;;5024543;28;20040;-81
2022/10/26 13:52:43;;;;;;;34.72;16.60;;;;;;;;;;5022344;28;20401;-81
2022/10/26 13:55:13;;;;;;;33.28;17.55;;;;;;;;;;5025220;28;20037;-82
2022/10/26 13:57:46;;;;;;;30.92;16.73;;;;;;;;;;5024588;28;20022;-81
2022/10/26 14:00:12;;;;;;;;;;;;;;;;;;5019469;28;20048;-82
2022/10/26 14:02:42;;;;;;;26.60;14.85;;;;;;;;;;5006314;28;19909;-82
2022/10/26 14:05:13;;;;;;;30.40;15.73;;;;;;;;;;5024979;28;20118;-83
2022/10/26 14:07:51;;;;;;;30.73;16.38;;;;;;;;;;5029083;28;20045;-82
2022/10/26 14:10:24;;;;;;;30.65;16.75;;;;;;;;;;5023067;28;20040;-81
2022/10/26 14:12:50;;;;;;;31.92;17.90;;;;;;;;;;5024142;28;20030;-81
2022/10/26 14:15:18;;;;;;;32.17;16.92;;;;;;;;;;5024098;28;20059;-82
2022/10/26 14:17:49;;;;;;;32.08;17.67;;;;;;;;;;5023907;28;20034;-82
2022/10/26 14:20:19;;;;;;;31.50;17.45;;;;;;;;;;5020059;28;20034;-81
2022/10/26 14:22:45;;;;;;;26.45;16.70;;;;;;;;;;5003392;28;20098;-81
2022/10/26 14:25:24;;;;;;;32.08;17.83;;;;;;;;;;5024589;28;20052;-81
2022/10/26 14:27:51;;;;;;;36.35;18.17;;;;;;;;;;5023678;28;20030;-82
2022/10/26 14:30:22;;;;;;;33.20;17.08;;;;;;;;;;5010061;28;20030;-80
2022/10/26 14:32:48;;;;;;;30.48;16.13;;;;;;;;;;5018553;28;20050;-81
2022/10/26 14:35:14;;;;;;;32.92;18.77;;;;;;;;;;5006644;28;20045;-82
2022/10/26 14:37:51;;;;;;;30.05;16.92;;;;;;;;;;5022940;28;20061;-83
2022/10/26 14:40:24;;;;;;;31.42;18.10;;;;;;;;;;5019083;28;20394;-82
2022/10/26 14:42:53;;;;;;;30.48;17.67;;;;;;;;;;5020627;28;20022;-81
2022/10/26 14:45:24;;;;;;;30.13;18.05;;;;;;;;;;5019170;28;20495;-82
2022/10/26 14:47:50;;;;;;;32.15;18.88;;;;;;;;;;5004499;28;20061;-81
2022/10/26 14:50:18;;;;;;;32.33;18.05;;;;;;;;;;5033216;28;20025;-81
2022/10/26 14:52:50;;;;;;;34.42;20.38;;;;;;;;;;5033567;28;20026;-81